メインページ
METAR-TAF:

METAR-TAF

空港 :

フォス・ド・イグアス, パラナ州, ブラジル

フォス・ド・イグアス国際空港

緯度: 25-31S, 経度: 054-35W, 海抜: 180m

現時点の気象観測

当レポートは24分前の21:00(UTC)に作成
の風 4kt
気温 26°C
湿度 74%
気圧 1010 hPa
視程10km以上
高度3500ftの雲はほとんどない
高度10000ftの千切れ雲あり

METAR: SBFI 202100Z 08004KT 9999 FEW035 BKN100 26/21 Q1010

時間: 19:24 (21:24 UTC)

予報

当レポートは5時間54分前の15:30(UTC)に作成
予報は20日の 18時(UTC)から 21日の 18時(UTC)まで有効
東/南東の風 7kt
視程10km以上
高度3500ftの雲はほとんどない
確率 40% :
21日の 14時(UTC)から 21日の 18時(UTC)まで一時的に
視程: 5000m
高度1000ftの千切れ雲あり
高度3500ftの雲はほとんどない, 積乱雲.
激しい雷雨, 雨

TAF: SBFI 201530Z 2018/2118 12007KT 9999 FEW035 TX27/2018Z TN19/2108Z PROB40 TEMPO 2114/2118 5000 TSRA BKN010 FEW035CB RMK PDW

4,000以上の空港の気象観測と天気予報(METAR報とTAF報)

利用可能な観測所は地図上に黄色い丸と赤い丸で示す。

丸の上にカーソルを重ねると観測所名を参照できる。

次にクリックすると気象観測と天気予報を参照できる。

マップの切り替え:黒色「×」印の緑ボタンをクリックして拡大、「-」印の緑ボタンをクリックして縮小、緑色の三角印をクリックして隣りの地図に切り替え


METAR-TAF: